Time;durP1;ratioP1;P1;durP2;ratioP2;P2;SDS_P1;SDS_P2;PMS_P1;PMS_P2;Temp;Humidity;BMP_temperature;BMP_pressure;BME280_temperature;BME280_humidity;BME280_pressure;Samples;Min_cycle;Max_cycle;Signal;HPM_P1;HPM_P2
2022/12/13 00:01:55;;;;;;;7.27;3.43;;;0.60;99.90;;;;;;5114926;28;20605;-80
2022/12/13 00:04:25;;;;;;;5.67;3.20;;;0.60;99.90;;;;;;5114899;28;20184;-79
2022/12/13 00:06:54;;;;;;;3.83;3.00;;;0.60;99.90;;;;;;5115050;28;20190;-76
2022/12/13 00:09:23;;;;;;;4.47;3.60;;;0.60;99.90;;;;;;5114567;28;20226;-77
2022/12/13 00:11:53;;;;;;;4.17;3.73;;;0.50;99.90;;;;;;5114818;28;20274;-79
2022/12/13 00:14:22;;;;;;;3.30;3.00;;;0.50;99.90;;;;;;5114683;28;20196;-79
2022/12/13 00:16:51;;;;;;;3.10;2.50;;;0.50;99.90;;;;;;5114661;28;20245;-80
2022/12/13 00:19:20;;;;;;;4.23;3.23;;;0.40;99.90;;;;;;5114691;28;20683;-77
2022/12/13 00:21:51;;;;;;;2.93;2.67;;;0.40;99.90;;;;;;5108254;27;20195;-80
2022/12/13 00:24:20;;;;;;;3.67;3.17;;;0.30;99.90;;;;;;5096856;28;20192;-76
2022/12/13 00:26:49;;;;;;;4.47;3.73;;;0.30;99.90;;;;;;5114477;28;20231;-75
2022/12/13 00:29:19;;;;;;;4.23;3.70;;;0.30;99.90;;;;;;5114446;28;20310;-81
2022/12/13 00:31:48;;;;;;;3.13;2.83;;;0.30;99.90;;;;;;5114616;28;20204;-74
2022/12/13 00:34:32;;;;;;;4.13;3.77;;;0.30;99.90;;;;;;5114532;28;20196;-80
2022/12/13 00:37:00;;;;;;;3.80;3.10;;;0.30;99.90;;;;;;5114266;28;20236;-81
2022/12/13 00:39:29;;;;;;;4.83;3.10;;;0.30;99.90;;;;;;5099131;28;20222;-80
2022/12/13 00:41:58;;;;;;;3.67;2.83;;;0.30;99.90;;;;;;5093738;28;20193;-80
2022/12/13 00:44:28;;;;;;;3.20;2.90;;;0.30;99.90;;;;;;5093859;28;20193;-77
2022/12/13 00:46:57;;;;;;;4.00;3.07;;;0.30;99.90;;;;;;5093565;28;20286;-79
2022/12/13 00:49:27;;;;;;;3.10;2.80;;;0.20;99.90;;;;;;5093713;28;20631;-81
2022/12/13 00:51:55;;;;;;;4.93;2.77;;;0.20;99.90;;;;;;5093300;28;20207;-75
2022/12/13 00:54:24;;;;;;;4.20;3.80;;;0.20;99.90;;;;;;5093535;28;20195;-79
2022/12/13 00:56:54;;;;;;;3.10;2.90;;;0.10;99.90;;;;;;5093601;28;20184;-78
2022/12/13 00:59:22;;;;;;;3.83;3.10;;;0.10;99.90;;;;;;5093540;28;20261;-79
2022/12/13 01:01:53;;;;;;;3.13;2.93;;;0.10;99.90;;;;;;5093484;28;20192;-80
2022/12/13 01:04:22;;;;;;;3.13;2.83;;;0.10;99.90;;;;;;5075145;28;20207;-79
2022/12/13 01:06:50;;;;;;;3.00;2.77;;;0.20;99.90;;;;;;5093471;28;21059;-79
2022/12/13 01:09:21;;;;;;;3.67;3.13;;;0.20;99.90;;;;;;5092944;28;20322;-73
2022/12/13 01:11:51;;;;;;;4.27;3.00;;;0.20;99.90;;;;;;5093168;28;20192;-73
2022/12/13 01:14:20;;;;;;;3.73;3.03;;;0.20;99.90;;;;;;5093047;28;20195;-73
2022/12/13 01:16:49;;;;;;;3.37;3.07;;;0.20;99.90;;;;;;5093003;28;20184;-76
2022/12/13 01:19:19;;;;;;;2.73;2.53;;;0.10;99.90;;;;;;5093029;28;20634;-78
2022/12/13 01:21:49;;;;;;;3.33;3.07;;;0.10;99.90;;;;;;5093078;28;20192;-80
2022/12/13 01:24:20;;;;;;;3.30;3.00;;;0.10;99.90;;;;;;5092992;28;20199;-79
2022/12/13 01:26:48;;;;;;;3.50;3.20;;;0.10;99.90;;;;;;5092994;28;20601;-79
2022/12/13 01:29:17;;;;;;;2.80;2.60;;;0.10;99.90;;;;;;5092725;28;20224;-77
2022/12/13 01:31:47;;;;;;;3.43;2.90;;;0.10;99.90;;;;;;5092692;28;20202;-76
2022/12/13 01:34:19;;;;;;;3.67;3.17;;;0.10;99.90;;;;;;5092882;28;20184;-78
2022/12/13 01:36:48;;;;;;;4.10;3.70;;;0.10;99.90;;;;;;5092621;28;20315;-78
2022/12/13 01:39:19;;;;;;;2.77;2.50;;;0.20;99.90;;;;;;5092526;28;20209;-77
2022/12/13 01:41:50;;;;;;;4.00;3.60;;;0.20;99.90;;;;;;5092596;28;20685;-78
2022/12/13 01:45:02;;;;;;;4.70;3.60;;;0.10;99.90;;;;;;5092648;28;20188;-77
2022/12/13 01:47:36;;;;;;;3.97;3.40;;;0.20;99.90;;;;;;5092408;28;20204;-79
2022/12/13 01:50:12;;;;;;;3.80;3.50;;;0.20;99.90;;;;;;5092345;28;20211;-78
2022/12/13 01:52:42;;;;;;;7.30;3.33;;;0.10;99.90;;;;;;5092496;28;20207;-80
2022/12/13 01:55:15;;;;;;;4.13;3.70;;;0.10;99.90;;;;;;5092334;28;20204;-79
2022/12/13 01:57:46;;;;;;;6.03;3.63;;;0.10;99.90;;;;;;5092391;28;20237;-79
2022/12/13 02:00:16;;;;;;;3.80;3.20;;;0.10;99.90;;;;;;5092627;28;20192;-78
2022/12/13 02:02:46;;;;;;;4.20;3.40;;;0.10;99.90;;;;;;5091738;28;20204;-78
2022/12/13 02:05:25;;;;;;;3.63;3.33;;;0.10;99.90;;;;;;5092175;28;20200;-78
2022/12/13 02:07:55;;;;;;;3.80;3.50;;;0.20;99.90;;;;;;5092171;28;20195;-79
2022/12/13 02:10:25;;;;;;;4.93;3.40;;;0.20;99.90;;;;;;5091957;28;20226;-78
2022/12/13 02:12:54;;;;;;;3.67;3.13;;;0.20;99.90;;;;;;5092102;28;20188;-77
2022/12/13 02:15:23;;;;;;;3.83;3.50;;;0.20;99.90;;;;;;5091960;28;20618;-74
2022/12/13 02:18:03;;;;;;;4.20;3.80;;;0.20;99.90;;;;;;5096161;28;20192;-78
2022/12/13 02:21:01;;;;;;;3.60;3.30;;;0.20;99.90;;;;;;5112291;28;20218;-75
2022/12/13 02:24:24;;;;;;;3.47;3.13;;;0.30;99.90;;;;;;5031545;28;20206;-73
2022/12/13 02:27:10;;;;;;;4.03;3.30;;;0.40;99.90;;;;;;4990236;28;20239;-78
2022/12/13 02:30:15;;;;;;;3.27;2.93;;;0.40;99.90;;;;;;4990231;28;20223;-79
2022/12/13 02:32:57;;;;;;;3.43;3.13;;;0.40;99.90;;;;;;4990214;28;20569;-75
2022/12/13 02:35:33;;;;;;;3.33;3.13;;;0.30;99.90;;;;;;4990036;28;20699;-79
2022/12/13 02:38:09;;;;;;;3.30;3.00;;;0.30;99.90;;;;;;4990268;28;20627;-79
2022/12/13 02:40:40;;;;;;;2.77;2.57;;;0.30;99.90;;;;;;4974527;28;20623;-77
2022/12/13 02:43:15;;;;;;;3.63;3.33;;;0.30;99.90;;;;;;4990015;28;20204;-78
2022/12/13 02:45:47;;;;;;;3.33;2.93;;;0.40;99.90;;;;;;4990152;28;20709;-76
2022/12/13 02:48:21;;;;;;;3.53;3.20;;;0.40;99.90;;;;;;4989932;28;20665;-79
2022/12/13 02:50:52;;;;;;;3.40;3.10;;;0.40;99.90;;;;;;4989894;28;20297;-80
2022/12/13 02:53:24;;;;;;;3.23;3.03;;;0.40;99.90;;;;;;4974456;28;20304;-75
2022/12/13 02:55:53;;;;;;;3.60;2.70;;;0.50;99.90;;;;;;4981350;28;20250;-79
2022/12/13 02:58:29;;;;;;;4.27;3.00;;;0.50;99.90;;;;;;4898553;29;20215;-80
2022/12/13 03:01:14;;;;;;;5.17;3.80;;;0.50;99.90;;;;;;4929284;29;20214;-78
2022/12/13 03:04:06;;;;;;;3.50;3.20;;;0.60;99.90;;;;;;5002529;28;20305;-78
2022/12/13 03:06:45;;;;;;;4.33;3.37;;;0.50;99.90;;;;;;5029211;28;20202;-74
2022/12/13 03:09:29;;;;;;;3.03;2.73;;;0.50;99.90;;;;;;5017061;28;20211;-77
2022/12/13 03:15:03;;;;;;;3.07;2.87;;;0.60;99.90;;;;;;5012981;28;20205;-74
2022/12/13 03:17:38;;;;;;;4.03;2.93;;;0.50;99.90;;;;;;5086073;28;20324;-78
2022/12/13 03:20:10;;;;;;;2.97;2.77;;;0.50;99.80;;;;;;5095518;28;20196;-78
2022/12/13 03:22:40;;;;;;;3.77;2.47;;;0.50;99.90;;;;;;5087697;27;20305;-80
2022/12/13 03:25:09;;;;;;;3.40;3.20;;;0.50;99.20;;;;;;5136086;27;20195;-78
2022/12/13 03:27:38;;;;;;;4.17;2.63;;;0.50;99.80;;;;;;5117355;27;20203;-78
2022/12/13 03:30:08;;;;;;;3.37;2.97;;;0.50;99.80;;;;;;5136113;27;20213;-78
2022/12/13 03:32:38;;;;;;;3.57;3.27;;;0.50;99.50;;;;;;5136048;27;20195;-78
2022/12/13 03:35:09;;;;;;;3.43;3.13;;;0.50;98.60;;;;;;5135982;27;20203;-78
2022/12/13 03:37:50;;;;;;;4.73;3.37;;;0.50;98.30;;;;;;5136017;27;20695;-79
2022/12/13 03:40:19;;;;;;;3.77;2.83;;;0.50;98.60;;;;;;5135946;27;20190;-78
2022/12/13 03:42:48;;;;;;;4.30;3.43;;;0.60;98.50;;;;;;5136012;27;20198;-76
2022/12/13 03:45:17;;;;;;;2.90;2.70;;;0.60;98.70;;;;;;5135975;27;20195;-78
2022/12/13 03:47:46;;;;;;;4.87;3.53;;;0.50;97.80;;;;;;5135708;27;20187;-79
2022/12/13 03:50:16;;;;;;;3.50;3.20;;;0.50;98.60;;;;;;5116912;27;20684;-77
2022/12/13 03:52:58;;;;;;;5.50;3.37;;;0.50;98.20;;;;;;5135795;27;20195;-79
2022/12/13 03:55:28;;;;;;;3.33;3.03;;;0.60;99.10;;;;;;5135663;27;20202;-79
2022/12/13 03:57:56;;;;;;;4.13;3.77;;;0.60;98.60;;;;;;5135677;27;20191;-77
2022/12/13 04:00:29;;;;;;;3.53;3.23;;;0.60;98.90;;;;;;5135600;27;20191;-77
2022/12/13 04:02:57;;;;;;;6.57;4.70;;;0.50;99.70;;;;;;5135529;27;20191;-76
2022/12/13 04:05:28;;;;;;;3.53;3.17;;;0.50;99.90;;;;;;5135531;27;20278;-77
2022/12/13 04:07:57;;;;;;;4.33;3.30;;;0.50;99.90;;;;;;5071922;28;20205;-73
2022/12/13 04:10:28;;;;;;;3.40;3.10;;;0.50;99.90;;;;;;5071862;28;20260;-78
2022/12/13 04:15:47;;;;;;;3.33;3.03;;;0.50;99.90;;;;;;5072041;28;20229;-78
2022/12/13 04:18:17;;;;;;;3.20;2.90;;;0.50;99.90;;;;;;5055169;28;20292;-78
2022/12/13 04:20:48;;;;;;;3.40;3.10;;;0.50;99.90;;;;;;5071866;28;20280;-77
2022/12/13 04:23:17;;;;;;;3.93;3.33;;;0.50;99.90;;;;;;5071818;28;20572;-78
2022/12/13 04:25:46;;;;;;;4.17;3.03;;;0.50;99.90;;;;;;5092596;27;20561;-73
2022/12/13 04:28:14;;;;;;;3.53;3.20;;;0.40;99.90;;;;;;5135112;27;20190;-76
2022/12/13 04:30:48;;;;;;;5.20;3.30;;;0.40;99.90;;;;;;5134951;27;20301;-77
2022/12/13 04:33:20;;;;;;;3.60;3.30;;;0.40;99.90;;;;;;5135064;27;20576;-79
2022/12/13 04:35:51;;;;;;;6.40;3.80;;;0.50;99.90;;;;;;5112156;28;20280;-79
2022/12/13 04:38:19;;;;;;;6.53;4.60;;;0.50;99.90;;;;;;5114516;28;20188;-74
2022/12/13 04:41:13;;;;;;;7.57;4.97;;;0.50;99.90;;;;;;5114092;28;20206;-75
2022/12/13 04:43:41;;;;;;;5.43;3.83;;;0.40;99.90;;;;;;5114374;28;20192;-75
2022/12/13 04:46:10;;;;;;;13.50;8.17;;;0.40;99.90;;;;;;5114284;28;20196;-79
2022/12/13 04:48:38;;;;;;;4.60;3.77;;;0.40;99.90;;;;;;5114161;28;20231;-76
2022/12/13 04:51:09;;;;;;;6.33;3.27;;;0.40;99.90;;;;;;5114057;28;20203;-78
2022/12/13 04:53:38;;;;;;;5.53;4.17;;;0.40;99.90;;;;;;5113952;28;20195;-76
2022/12/13 04:56:07;;;;;;;4.13;3.73;;;0.40;99.90;;;;;;5113987;28;20201;-78
2022/12/13 04:58:36;;;;;;;5.50;3.53;;;0.40;99.90;;;;;;5114168;28;20592;-76
2022/12/13 05:01:07;;;;;;;8.27;4.30;;;0.40;99.90;;;;;;5114089;28;20206;-78
2022/12/13 05:03:37;;;;;;;5.60;4.27;;;0.40;99.90;;;;;;5113857;28;20192;-74
2022/12/13 05:06:09;;;;;;;6.60;3.70;;;0.30;99.90;;;;;;5113754;28;20204;-80
2022/12/13 05:08:53;;;;;;;4.33;3.73;;;0.20;99.90;;;;;;5113826;28;20196;-78
2022/12/13 05:11:22;;;;;;;5.73;4.70;;;0.10;99.90;;;;;;5113379;28;20226;-79
2022/12/13 05:13:51;;;;;;;7.53;4.53;;;0.10;99.90;;;;;;5113770;28;20264;-78
2022/12/13 05:16:20;;;;;;;8.50;3.90;;;0.00;99.90;;;;;;5108315;28;20283;-74
2022/12/13 05:18:52;;;;;;;6.50;3.90;;;0.10;99.90;;;;;;5110944;28;20206;-73
2022/12/13 05:21:22;;;;;;;5.27;3.50;;;0.10;99.90;;;;;;5134073;27;20207;-79
2022/12/13 05:23:51;;;;;;;5.50;3.67;;;0.00;99.90;;;;;;5134026;27;20220;-79
2022/12/13 05:26:19;;;;;;;4.47;3.57;;;0.00;99.90;;;;;;5133823;27;20190;-78
2022/12/13 05:28:48;;;;;;;4.33;3.47;;;0.10;99.90;;;;;;5133835;27;20660;-79
2022/12/13 05:31:17;;;;;;;5.10;3.83;;;0.10;99.90;;;;;;5109938;27;20219;-75
2022/12/13 05:33:49;;;;;;;4.27;3.47;;;0.00;99.90;;;;;;5092906;28;20207;-79
2022/12/13 05:36:18;;;;;;;4.07;3.77;;;0.00;99.90;;;;;;5102555;28;20255;-72
2022/12/13 05:38:48;;;;;;;3.90;3.43;;;0.10;99.90;;;;;;5112704;28;20191;-79
2022/12/13 05:41:21;;;;;;;5.20;3.73;;;0.10;99.90;;;;;;5112990;28;20237;-79
2022/12/13 05:43:49;;;;;;;5.30;3.90;;;0.10;99.90;;;;;;5112993;28;20191;-79
2022/12/13 05:46:18;;;;;;;5.37;3.40;;;0.10;99.90;;;;;;5113721;27;20248;-79
2022/12/13 05:48:47;;;;;;;5.27;3.30;;;0.10;99.90;;;;;;5112996;28;20196;-79
2022/12/13 05:51:16;;;;;;;7.50;4.10;;;0.10;99.90;;;;;;5112781;28;20235;-79
2022/12/13 05:53:45;;;;;;;4.43;4.03;;;0.10;99.90;;;;;;5112979;28;20722;-73
2022/12/13 05:56:20;;;;;;;3.97;3.10;;;0.20;99.90;;;;;;5112768;28;20210;-80
2022/12/13 05:58:50;;;;;;;6.63;3.97;;;0.20;99.90;;;;;;5113065;28;20206;-77
2022/12/13 06:01:20;;;;;;;4.17;3.77;;;0.20;99.90;;;;;;5112732;28;20199;-80
2022/12/13 06:03:49;;;;;;;5.17;3.43;;;0.20;99.90;;;;;;5112761;28;20192;-77
2022/12/13 06:06:18;;;;;;;5.10;3.80;;;0.30;99.90;;;;;;5112749;28;20695;-76
2022/12/13 06:08:46;;;;;;;6.87;4.30;;;0.30;99.90;;;;;;5112820;28;20202;-79
2022/12/13 06:11:15;;;;;;;4.70;3.60;;;0.30;99.90;;;;;;5112347;28;20227;-74
2022/12/13 06:14:00;;;;;;;6.93;3.53;;;0.30;99.70;;;;;;5111205;28;20207;-73
2022/12/13 06:16:29;;;;;;;4.30;3.17;;;0.30;98.80;;;;;;5118908;27;20221;-76
2022/12/13 06:18:58;;;;;;;4.97;3.47;;;0.30;99.50;;;;;;5133084;27;20248;-77
2022/12/13 06:21:32;;;;;;;5.00;3.63;;;0.30;98.70;;;;;;5115370;27;20226;-76
2022/12/13 06:24:11;;;;;;;12.10;7.60;;;0.40;98.10;;;;;;5133179;27;20198;-77
2022/12/13 06:26:39;;;;;;;5.33;3.77;;;0.40;97.10;;;;;;5117315;27;20278;-74
2022/12/13 06:29:10;;;;;;;5.43;3.30;;;0.50;96.50;;;;;;5112457;28;20665;-77
2022/12/13 06:31:39;;;;;;;3.83;3.20;;;0.50;96.10;;;;;;5121158;27;20215;-74
2022/12/13 06:34:07;;;;;;;4.00;3.40;;;0.40;95.30;;;;;;5112234;28;20203;-80
2022/12/13 06:36:43;;;;;;;3.80;3.03;;;0.40;95.00;;;;;;5112142;28;20585;-81
2022/12/13 06:39:12;;;;;;;5.70;3.77;;;0.40;94.00;;;;;;5112395;28;20192;-80
2022/12/13 06:41:41;;;;;;;7.87;3.23;;;0.40;94.40;;;;;;5112239;28;20191;-80
2022/12/13 06:44:11;;;;;;;5.97;3.60;;;0.40;93.40;;;;;;5112396;28;20191;-75
2022/12/13 06:46:41;;;;;;;3.33;2.97;;;0.40;94.10;;;;;;5119320;28;20195;-78
2022/12/13 06:49:10;;;;;;;5.27;3.33;;;0.40;93.40;;;;;;5132213;27;20716;-75
2022/12/13 06:51:39;;;;;;;7.27;3.90;;;0.40;93.10;;;;;;5132064;28;20211;-79
2022/12/13 06:54:08;;;;;;;9.33;5.33;;;0.40;92.20;;;;;;5131578;28;20225;-80
2022/12/13 06:56:36;;;;;;;6.00;3.73;;;0.40;92.60;;;;;;5131371;28;20190;-80
2022/12/13 06:59:05;;;;;;;4.47;3.53;;;0.40;92.60;;;;;;5113178;28;20202;-80
2022/12/13 07:01:35;;;;;;;3.60;3.30;;;0.40;92.00;;;;;;5117766;28;20198;-71
2022/12/13 07:04:07;;;;;;;3.83;3.20;;;0.40;93.40;;;;;;5103897;28;20199;-84
2022/12/13 07:06:56;;;;;;;3.90;2.90;;;0.40;92.50;;;;;;5101897;28;20252;-76
2022/12/13 07:09:29;;;;;;;7.03;3.30;;;0.40;92.60;;;;;;5132999;28;20187;-85
2022/12/13 07:11:58;;;;;;;5.27;3.50;;;0.40;92.80;;;;;;5132660;28;20297;-73
2022/12/13 07:14:27;;;;;;;3.80;3.30;;;0.50;92.70;;;;;;5112986;28;20276;-71
2022/12/13 07:16:58;;;;;;;3.80;2.97;;;0.50;93.20;;;;;;5110029;28;20223;-72
2022/12/13 07:19:31;;;;;;;3.63;3.30;;;0.50;92.40;;;;;;5112240;28;20184;-74
2022/12/13 07:22:04;;;;;;;5.47;3.70;;;0.50;93.00;;;;;;5112265;28;20700;-74
2022/12/13 07:24:34;;;;;;;5.30;3.37;;;0.50;93.00;;;;;;5091727;28;20264;-73
2022/12/13 07:27:03;;;;;;;4.40;3.67;;;0.50;93.40;;;;;;5110882;28;20192;-73
2022/12/13 07:29:31;;;;;;;3.67;3.27;;;0.60;93.90;;;;;;5131225;28;20195;-80
2022/12/13 07:32:02;;;;;;;4.37;3.97;;;0.60;93.60;;;;;;5112852;28;20212;-79
2022/12/13 07:34:30;;;;;;;5.33;3.53;;;0.60;93.10;;;;;;5112150;28;20283;-81
2022/12/13 07:36:59;;;;;;;6.27;4.03;;;0.50;93.20;;;;;;5095604;28;20697;-79
2022/12/13 07:39:28;;;;;;;6.90;4.07;;;0.60;94.30;;;;;;5111573;28;20224;-81
2022/12/13 07:41:56;;;;;;;35.77;18.83;;;0.70;93.50;;;;;;5111347;28;20195;-72
2022/12/13 07:44:26;;;;;;;10.57;7.40;;;0.80;92.50;;;;;;5106825;28;20281;-83
2022/12/13 07:46:54;;;;;;;6.87;5.00;;;0.90;91.60;;;;;;5100249;28;20280;-78
2022/12/13 07:49:24;;;;;;;6.50;4.37;;;0.90;91.00;;;;;;5091487;28;20238;-75
2022/12/13 07:51:53;;;;;;;3.93;3.30;;;0.90;90.90;;;;;;5091528;28;20279;-82
2022/12/13 07:54:21;;;;;;;5.87;4.00;;;0.90;91.00;;;;;;5091543;28;20216;-77
2022/12/13 07:56:50;;;;;;;6.00;4.00;;;1.00;91.30;;;;;;5091165;28;20279;-81
2022/12/13 07:59:19;;;;;;;15.60;8.50;;;1.00;90.40;;;;;;5091582;28;20192;-72
2022/12/13 08:01:55;;;;;;;16.10;9.73;;;1.00;90.90;;;;;;5112454;28;20289;-81
2022/12/13 08:04:25;;;;;;;5.67;4.43;;;1.00;91.40;;;;;;5115596;28;20699;-80
2022/12/13 08:06:54;;;;;;;5.23;3.93;;;1.00;90.70;;;;;;5115197;28;20204;-75
2022/12/13 08:09:23;;;;;;;7.57;4.30;;;1.00;90.10;;;;;;5115302;28;20198;-78
2022/12/13 08:11:52;;;;;;;6.03;3.83;;;1.00;89.00;;;;;;5121553;27;20634;-75
2022/12/13 08:14:20;;;;;;;10.83;6.80;;;1.00;88.80;;;;;;5137325;27;20305;-74
2022/12/13 08:16:49;;;;;;;8.27;4.43;;;1.00;90.70;;;;;;5136163;27;20269;-82
2022/12/13 08:19:18;;;;;;;6.17;4.57;;;1.10;89.60;;;;;;5107432;27;20199;-72
2022/12/13 08:21:48;;;;;;;12.70;7.90;;;1.10;89.30;;;;;;5107396;27;20571;-79
2022/12/13 08:24:23;;;;;;;4.90;4.20;;;1.10;88.80;;;;;;5114645;28;20227;-80
2022/12/13 08:26:55;;;;;;;16.87;8.27;;;1.10;88.70;;;;;;5114393;28;20184;-84
2022/12/13 08:29:24;;;;;;;6.27;5.03;;;1.10;89.50;;;;;;5114570;28;20736;-78
2022/12/13 08:32:02;;;;;;;11.13;5.57;;;1.10;89.00;;;;;;5114254;28;20249;-79
2022/12/13 08:34:31;;;;;;;7.47;5.10;;;1.10;89.80;;;;;;5114351;28;20768;-82
2022/12/13 08:37:01;;;;;;;7.83;4.67;;;1.10;89.30;;;;;;5103171;28;20230;-85
2022/12/13 08:39:33;;;;;;;9.67;4.80;;;1.10;90.00;;;;;;5123289;27;20269;-79
2022/12/13 08:42:04;;;;;;;9.53;4.73;;;1.10;89.30;;;;;;5096061;28;20204;-85
2022/12/13 08:44:46;;;;;;;5.87;4.50;;;1.10;90.40;;;;;;5114381;28;20192;-75
2022/12/13 08:47:15;;;;;;;6.60;4.40;;;1.10;90.00;;;;;;5115918;27;20230;-77
2022/12/13 08:49:54;;;;;;;11.10;5.47;;;1.10;89.80;;;;;;5135016;27;20586;-80
2022/12/13 08:52:25;;;;;;;7.93;4.57;;;1.10;89.30;;;;;;5130690;27;20653;-79
2022/12/13 08:54:53;;;;;;;5.07;3.93;;;1.00;89.50;;;;;;5127182;27;20202;-85
2022/12/13 08:57:23;;;;;;;13.10;6.17;;;1.10;90.90;;;;;;5134567;27;20191;-75
2022/12/13 08:59:52;;;;;;;6.33;4.33;;;1.10;91.50;;;;;;5093591;28;20239;-81
2022/12/13 09:02:21;;;;;;;6.07;3.20;;;1.10;91.00;;;;;;5113796;28;20218;-78
2022/12/13 09:04:50;;;;;;;8.30;4.27;;;1.10;90.80;;;;;;5117230;27;20218;-76
2022/12/13 09:07:19;;;;;;;6.67;4.33;;;1.10;91.50;;;;;;5134497;27;20667;-75
2022/12/13 09:09:49;;;;;;;5.73;3.93;;;1.20;91.40;;;;;;5134548;27;20202;-74
2022/12/13 09:12:23;;;;;;;6.77;4.03;;;1.20;91.10;;;;;;5134422;27;20194;-73
2022/12/13 09:14:59;;;;;;;6.00;4.17;;;1.20;91.30;;;;;;5116970;27;20297;-82
2022/12/13 09:17:32;;;;;;;7.97;3.90;;;1.20;90.60;;;;;;5134408;27;20656;-74
2022/12/13 09:20:08;;;;;;;6.03;4.30;;;1.30;90.00;;;;;;5117483;27;20276;-79
2022/12/13 09:22:38;;;;;;;6.53;4.50;;;1.30;89.00;;;;;;5113876;28;20192;-75
2022/12/13 09:25:13;;;;;;;6.00;4.17;;;1.40;89.10;;;;;;5113606;28;20199;-75
2022/12/13 09:27:43;;;;;;;6.27;4.00;;;1.40;88.30;;;;;;5113148;28;20271;-80
2022/12/13 09:30:13;;;;;;;5.53;3.60;;;1.50;85.40;;;;;;5113316;28;20192;-72
2022/12/13 09:32:42;;;;;;;4.00;3.60;;;1.50;84.80;;;;;;5113245;28;20687;-79
2022/12/13 09:35:11;;;;;;;5.77;3.63;;;1.50;82.30;;;;;;5113220;28;20725;-79
2022/12/13 09:37:40;;;;;;;7.10;4.40;;;1.60;83.00;;;;;;5113119;28;20273;-78
2022/12/13 09:40:20;;;;;;;9.27;6.07;;;1.60;82.20;;;;;;5113261;28;20227;-79
2022/12/13 09:42:57;;;;;;;6.70;5.20;;;1.60;81.80;;;;;;5112967;28;20563;-81
2022/12/13 09:45:44;;;;;;;3.93;3.53;;;1.60;81.70;;;;;;5113186;28;20188;-82
2022/12/13 09:48:17;;;;;;;5.17;3.80;;;1.60;83.00;;;;;;5112819;28;20184;-78
2022/12/13 09:50:54;;;;;;;15.10;6.93;;;1.50;84.40;;;;;;5112858;28;20205;-73
2022/12/13 09:53:26;;;;;;;6.27;4.10;;;1.40;86.00;;;;;;5112897;28;20759;-84
2022/12/13 09:56:03;;;;;;;8.97;4.70;;;1.40;87.30;;;;;;5112868;28;20209;-81
2022/12/13 09:58:38;;;;;;;5.57;3.63;;;1.50;89.60;;;;;;5113297;28;20233;-88
2022/12/13 10:01:07;;;;;;;8.70;4.83;;;1.60;88.30;;;;;;5052431;28;20209;-80
2022/12/13 10:03:36;;;;;;;8.33;4.10;;;1.60;88.20;;;;;;5070130;28;20201;-89
2022/12/13 10:06:14;;;;;;;4.77;3.80;;;1.60;88.00;;;;;;5070140;28;20671;-72
2022/12/13 10:08:52;;;;;;;5.20;4.13;;;1.60;90.00;;;;;;5068388;28;20205;-76
2022/12/13 10:11:27;;;;;;;7.73;4.37;;;1.60;88.70;;;;;;5029886;28;20201;-71
2022/12/13 10:14:03;;;;;;;5.97;4.57;;;1.60;87.70;;;;;;5029543;28;20225;-75
2022/12/13 10:16:43;;;;;;;4.70;3.23;;;1.50;85.90;;;;;;5029549;28;20198;-72
2022/12/13 10:19:18;;;;;;;7.10;4.40;;;1.50;85.40;;;;;;5057404;28;20199;-72
2022/12/13 10:21:58;;;;;;;5.73;4.17;;;1.60;86.50;;;;;;5092041;28;20560;-74
2022/12/13 10:24:30;;;;;;;5.30;4.00;;;1.60;85.40;;;;;;5091591;28;20196;-71
2022/12/13 10:27:14;;;;;;;6.87;4.83;;;1.60;83.90;;;;;;5091685;28;20278;-76
2022/12/13 10:30:05;;;;;;;9.73;6.13;;;1.70;84.80;;;;;;5091727;28;20606;-73
2022/12/13 10:32:45;;;;;;;19.67;8.90;;;1.80;83.40;;;;;;5091783;28;20666;-71
2022/12/13 10:36:11;;;;;;;21.87;12.33;;;1.80;83.10;;;;;;5091618;28;20224;-75
2022/12/13 10:47:21;;;;;;;7.13;5.00;;;1.90;81.50;;;;;;4990430;28;20255;-73
2022/12/13 10:50:25;;;;;;;8.60;5.77;;;1.90;82.00;;;;;;4974489;28;20723;-77
2022/12/13 11:04:24;;;;;;;13.53;8.63;;;2.00;79.90;;;;;;5163339;23;20260;-73
2022/12/13 11:06:56;;;;;;;10.10;5.30;;;2.10;78.30;;;;;;4953630;29;20197;-73
2022/12/13 11:09:27;;;;;;;5.70;4.47;;;2.10;77.60;;;;;;4930965;29;20203;-75
2022/12/13 11:12:51;;;;;;;6.73;4.83;;;2.00;75.00;;;;;;4934650;29;20266;-80
2022/12/13 11:15:25;;;;;;;7.90;4.13;;;2.00;74.70;;;;;;4890864;23;20291;-78
2022/12/13 11:17:58;;;;;;;4.13;2.53;;;2.00;72.30;;;;;;4972600;28;20204;-75
2022/12/13 11:20:32;;;;;;;5.27;3.37;;;1.90;71.90;;;;;;4972745;28;20207;-74
2022/12/13 11:23:04;;;;;;;8.80;3.87;;;2.00;72.00;;;;;;4972658;28;20729;-77
2022/12/13 11:25:40;;;;;;;7.07;4.67;;;2.00;72.10;;;;;;4972734;28;20288;-79
2022/12/13 11:28:21;;;;;;;7.70;4.03;;;2.00;71.90;;;;;;4972029;28;20283;-75
2022/12/13 11:31:15;;;;;;;2.60;2.40;;;2.00;71.80;;;;;;4972917;28;20213;-78
2022/12/13 11:33:54;;;;;;;4.80;3.33;;;1.90;71.30;;;;;;4972665;28;20227;-79
2022/12/13 11:36:34;;;;;;;8.17;4.57;;;1.90;70.60;;;;;;4975064;28;20192;-78
2022/12/13 11:39:14;;;;;;;5.10;3.57;;;1.90;70.90;;;;;;4976169;28;20245;-81
2022/12/13 11:41:49;;;;;;;8.17;5.23;;;1.80;70.30;;;;;;4976195;28;20260;-80
2022/12/13 11:44:26;;;;;;;5.70;3.73;;;1.90;69.60;;;;;;4976096;28;20208;-76
2022/12/13 11:46:57;;;;;;;12.27;6.83;;;1.80;69.30;;;;;;4975725;28;20299;-78
2022/12/13 11:49:35;;;;;;;6.50;3.77;;;1.90;69.90;;;;;;4976559;28;20563;-82
2022/12/13 11:52:11;;;;;;;3.57;3.07;;;1.90;69.50;;;;;;4976559;28;20567;-79
2022/12/13 11:54:48;;;;;;;3.73;3.13;;;1.90;68.80;;;;;;4966206;28;20221;-81
2022/12/13 11:57:30;;;;;;;5.23;3.67;;;1.90;68.50;;;;;;4975195;28;20231;-74
2022/12/13 12:00:05;;;;;;;4.27;3.10;;;1.80;68.50;;;;;;4956440;29;20193;-79
2022/12/13 12:02:48;;;;;;;5.30;3.63;;;1.80;68.30;;;;;;4956537;29;20209;-82
2022/12/13 12:05:28;;;;;;;6.93;3.73;;;1.80;68.60;;;;;;4956529;29;20678;-82
2022/12/13 12:08:04;;;;;;;5.93;3.40;;;1.80;68.70;;;;;;4956304;29;20200;-81
2022/12/13 12:11:08;;;;;;;4.07;3.27;;;1.80;68.80;;;;;;4956403;29;20200;-78
2022/12/13 12:13:42;;;;;;;5.00;3.23;;;1.70;70.30;;;;;;4956135;29;20192;-74
2022/12/13 12:16:28;;;;;;;5.57;3.03;;;1.70;70.50;;;;;;4956316;29;20232;-82
2022/12/13 12:18:58;;;;;;;4.40;3.67;;;1.80;71.20;;;;;;4956186;29;20214;-80
2022/12/13 12:21:37;;;;;;;7.33;4.43;;;1.80;71.30;;;;;;4956105;29;20205;-81
2022/12/13 12:24:35;;;;;;;9.67;4.40;;;1.80;71.00;;;;;;4938665;29;20225;-79
2022/12/13 12:27:20;;;;;;;9.20;5.27;;;1.80;70.80;;;;;;4955822;29;20219;-82
2022/12/13 12:30:15;;;;;;;8.37;4.67;;;1.80;70.60;;;;;;4956011;29;20223;-85
2022/12/13 12:32:54;;;;;;;4.70;4.10;;;1.90;70.40;;;;;;4956014;29;20204;-80
2022/12/13 12:35:55;;;;;;;8.27;5.30;;;1.90;70.60;;;;;;4955765;29;20315;-83
2022/12/13 12:39:00;;;;;;;7.23;4.30;;;2.00;70.90;;;;;;4936496;29;20205;-86
2022/12/13 12:41:41;;;;;;;7.43;4.87;;;2.00;70.40;;;;;;4953218;29;20220;-84
2022/12/13 12:44:25;;;;;;;15.23;5.83;;;2.00;69.90;;;;;;4937783;29;20236;-74
2022/12/13 12:47:14;;;;;;;7.60;4.70;;;2.10;69.60;;;;;;4955448;28;20197;-73
2022/12/13 12:50:30;;;;;;;6.43;4.37;;;2.00;69.10;;;;;;4955527;29;20667;-81
2022/12/13 12:53:09;;;;;;;6.60;4.63;;;2.10;69.00;;;;;;4955689;29;20229;-79
2022/12/13 12:55:48;;;;;;;8.13;4.30;;;2.00;68.90;;;;;;4955354;29;20320;-74
2022/12/13 12:58:27;;;;;;;6.93;4.23;;;2.10;69.10;;;;;;4938859;29;20205;-82
2022/12/13 13:01:13;;;;;;;8.43;4.70;;;2.10;68.90;;;;;;4961356;28;20220;-85
2022/12/13 13:03:43;;;;;;;12.27;6.57;;;2.10;68.90;;;;;;4961012;28;20231;-74
2022/12/13 13:06:15;;;;;;;19.80;10.50;;;2.10;68.60;;;;;;4955411;29;20201;-82
2022/12/13 13:08:47;;;;;;;15.97;8.90;;;2.10;68.40;;;;;;4938156;29;20679;-79
2022/12/13 13:11:23;;;;;;;9.97;6.97;;;2.10;68.20;;;;;;4938084;29;20212;-81
2022/12/13 13:14:07;;;;;;;6.47;4.37;;;2.10;68.30;;;;;;4937710;29;20612;-81
2022/12/13 13:16:38;;;;;;;4.43;3.73;;;2.00;68.10;;;;;;4954786;29;20323;-83
2022/12/13 13:19:46;;;;;;;9.10;4.27;;;1.90;68.60;;;;;;4954038;28;20725;-85
2022/12/13 13:22:30;;;;;;;4.20;3.30;;;1.80;69.30;;;;;;4957058;28;20209;-81
2022/12/13 13:25:31;;;;;;;5.70;3.30;;;1.70;70.60;;;;;;4962406;28;20569;-80
2022/12/13 13:28:06;;;;;;;8.43;4.07;;;1.60;71.80;;;;;;4911857;29;20301;-83
2022/12/13 13:30:36;;;;;;;6.93;4.43;;;1.60;73.30;;;;;;4906022;29;20203;-83
2022/12/13 13:33:30;;;;;;;10.90;4.13;;;1.60;75.50;;;;;;4905270;29;20202;-83
2022/12/13 13:35:59;;;;;;;7.37;4.80;;;1.60;77.50;;;;;;4911616;29;20261;-86
2022/12/13 13:38:49;;;;;;;8.80;5.20;;;1.70;78.50;;;;;;4907159;29;20245;-81
2022/12/13 13:41:40;;;;;;;10.77;5.47;;;1.70;79.30;;;;;;4913479;29;20204;-77
2022/12/13 13:44:47;;;;;;;6.27;5.07;;;1.80;80.00;;;;;;4914762;29;20660;-86
2022/12/13 13:47:33;;;;;;;11.00;5.77;;;1.80;81.00;;;;;;4845255;29;20327;-88
2022/12/13 13:50:17;;;;;;;9.33;4.73;;;1.80;81.80;;;;;;4852337;29;20220;-82
2022/12/13 13:53:00;;;;;;;11.60;6.13;;;1.70;82.40;;;;;;4858904;29;20264;-75
2022/12/13 13:55:52;;;;;;;10.67;5.27;;;1.70;82.80;;;;;;4851455;29;20693;-83
2022/12/13 13:58:52;;;;;;;7.50;4.13;;;1.60;83.50;;;;;;4839783;29;20292;-75
2022/12/13 14:01:49;;;;;;;8.70;5.27;;;1.60;83.70;;;;;;4833987;29;20225;-75